HEIS

Ismailia Airport

Ismailia, Egypt
METAR HEIS 121600Z 26006KT CAVOK 20/07 Q1020
Observed Flight Rules
Dec-12 @ 16:00 UTC (5 hours ago) Visual Flight Rules
Wind Visibility Clouds
260° at 6 knots 10,000+ meters
  • Clear skies
Temperatures Readings
Current 20°C / 68°F
Dewpoint 7°C / 45°F
Humidity 43%
Altimeter 30.12" Hg
Pressure 1020 hPa
Elevation 3
METAR HEIS 121600Z 26006KT CAVOK 20/07 Q1020
Observed Flight Rules
Dec-12 @ 16:00 UTC
(5 hours ago)
VFR
Wind Visibility
260° at 6 knots 10,000+ meters
Clouds
  • Clear skies
Temperature Dewpoint
20°C / 68°F 7°C / 45°F
Humidity Altimeter Pressure
43% 30.12" Hg 1020 hPa